sensor_id;sensor_type;location;lat;lon;timestamp;pressure;altitude;pressure_sealevel;temperature;humidity
7376;BME280;3728;42.266;24.944;2022-07-10T00:01:40;99190.97;;;19.06;97.37
7376;BME280;3728;42.266;24.944;2022-07-10T00:04:07;99190.19;;;19.02;98.27
7376;BME280;3728;42.266;24.944;2022-07-10T00:06:35;99184.16;;;19.05;98.91
7376;BME280;3728;42.266;24.944;2022-07-10T00:09:02;99177.53;;;19.25;97.37
7376;BME280;3728;42.266;24.944;2022-07-10T00:11:29;99184.91;;;19.05;98.54
7376;BME280;3728;42.266;24.944;2022-07-10T00:13:57;99196.44;;;19.20;97.86
7376;BME280;3728;42.266;24.944;2022-07-10T00:16:24;99181.59;;;19.16;97.65
7376;BME280;3728;42.266;24.944;2022-07-10T00:18:51;99190.41;;;19.23;98.15
7376;BME280;3728;42.266;24.944;2022-07-10T00:21:19;99180.28;;;18.99;99.39
7376;BME280;3728;42.266;24.944;2022-07-10T00:23:47;99188.41;;;19.13;99.37
7376;BME280;3728;42.266;24.944;2022-07-10T00:26:14;99178.28;;;19.26;97.65
7376;BME280;3728;42.266;24.944;2022-07-10T00:28:41;99180.84;;;19.15;98.35
7376;BME280;3728;42.266;24.944;2022-07-10T00:31:08;99181.25;;;19.17;98.52
7376;BME280;3728;42.266;24.944;2022-07-10T00:33:37;99167.06;;;19.02;100.00
7376;BME280;3728;42.266;24.944;2022-07-10T00:36:05;99174.25;;;19.02;100.00
7376;BME280;3728;42.266;24.944;2022-07-10T00:38:33;99174.59;;;18.97;100.00
7376;BME280;3728;42.266;24.944;2022-07-10T00:41:01;99176.44;;;18.93;100.00
7376;BME280;3728;42.266;24.944;2022-07-10T00:43:28;99173.75;;;18.89;100.00
7376;BME280;3728;42.266;24.944;2022-07-10T00:45:55;99172.78;;;19.08;100.00
7376;BME280;3728;42.266;24.944;2022-07-10T00:48:22;99173.38;;;19.24;99.41
7376;BME280;3728;42.266;24.944;2022-07-10T00:50:51;99169.22;;;19.30;99.45
7376;BME280;3728;42.266;24.944;2022-07-10T00:53:18;99170.25;;;19.19;100.00
7376;BME280;3728;42.266;24.944;2022-07-10T00:55:45;99163.00;;;19.12;100.00
7376;BME280;3728;42.266;24.944;2022-07-10T00:58:13;99160.47;;;19.26;100.00
7376;BME280;3728;42.266;24.944;2022-07-10T01:00:41;99158.41;;;19.09;100.00
7376;BME280;3728;42.266;24.944;2022-07-10T01:03:09;99158.72;;;19.04;100.00
7376;BME280;3728;42.266;24.944;2022-07-10T01:05:36;99150.13;;;19.18;100.00
7376;BME280;3728;42.266;24.944;2022-07-10T01:08:04;99144.41;;;19.12;100.00
7376;BME280;3728;42.266;24.944;2022-07-10T01:10:31;99138.78;;;19.17;100.00
7376;BME280;3728;42.266;24.944;2022-07-10T01:12:58;99134.91;;;19.07;100.00
7376;BME280;3728;42.266;24.944;2022-07-10T01:15:26;99145.66;;;19.25;100.00
7376;BME280;3728;42.266;24.944;2022-07-10T01:17:54;99147.88;;;19.16;100.00
7376;BME280;3728;42.266;24.944;2022-07-10T01:20:29;99156.16;;;19.11;100.00
7376;BME280;3728;42.266;24.944;2022-07-10T01:22:58;99153.59;;;19.22;100.00
7376;BME280;3728;42.266;24.944;2022-07-10T01:25:25;99144.84;;;19.18;100.00
7376;BME280;3728;42.266;24.944;2022-07-10T01:27:52;99135.56;;;18.97;100.00
7376;BME280;3728;42.266;24.944;2022-07-10T01:30:20;99147.75;;;19.05;100.00
7376;BME280;3728;42.266;24.944;2022-07-10T01:32:48;99139.59;;;19.25;100.00
7376;BME280;3728;42.266;24.944;2022-07-10T01:35:15;99139.97;;;19.23;100.00
7376;BME280;3728;42.266;24.944;2022-07-10T01:37:42;99147.19;;;19.26;100.00
7376;BME280;3728;42.266;24.944;2022-07-10T01:40:11;99139.47;;;19.10;100.00
7376;BME280;3728;42.266;24.944;2022-07-10T01:42:38;99152.19;;;19.31;100.00
7376;BME280;3728;42.266;24.944;2022-07-10T01:45:08;99150.38;;;19.02;100.00
7376;BME280;3728;42.266;24.944;2022-07-10T01:47:36;99135.19;;;18.99;100.00
7376;BME280;3728;42.266;24.944;2022-07-10T01:50:04;99138.41;;;18.82;100.00
7376;BME280;3728;42.266;24.944;2022-07-10T01:52:32;99136.19;;;18.87;100.00
7376;BME280;3728;42.266;24.944;2022-07-10T01:54:59;99144.06;;;18.77;100.00
7376;BME280;3728;42.266;24.944;2022-07-10T01:57:26;99137.19;;;18.72;100.00
7376;BME280;3728;42.266;24.944;2022-07-10T01:59:54;99138.47;;;18.89;100.00
7376;BME280;3728;42.266;24.944;2022-07-10T02:02:21;99137.28;;;18.83;100.00
7376;BME280;3728;42.266;24.944;2022-07-10T02:04:49;99139.69;;;18.58;100.00
7376;BME280;3728;42.266;24.944;2022-07-10T02:07:18;99137.38;;;18.57;100.00
7376;BME280;3728;42.266;24.944;2022-07-10T02:09:48;99137.94;;;18.43;100.00
7376;BME280;3728;42.266;24.944;2022-07-10T02:12:15;99138.44;;;18.22;100.00
7376;BME280;3728;42.266;24.944;2022-07-10T02:14:42;99132.13;;;18.04;100.00
7376;BME280;3728;42.266;24.944;2022-07-10T02:17:10;99140.91;;;18.08;100.00
7376;BME280;3728;42.266;24.944;2022-07-10T02:19:38;99128.44;;;17.83;100.00
7376;BME280;3728;42.266;24.944;2022-07-10T02:22:05;99136.03;;;18.14;100.00
7376;BME280;3728;42.266;24.944;2022-07-10T02:24:32;99129.56;;;18.11;100.00
7376;BME280;3728;42.266;24.944;2022-07-10T02:26:59;99126.81;;;18.04;100.00
7376;BME280;3728;42.266;24.944;2022-07-10T02:29:27;99129.03;;;17.99;100.00
7376;BME280;3728;42.266;24.944;2022-07-10T02:31:54;99130.41;;;17.89;100.00
7376;BME280;3728;42.266;24.944;2022-07-10T02:34:22;99128.38;;;18.05;100.00
7376;BME280;3728;42.266;24.944;2022-07-10T02:36:49;99130.63;;;18.03;100.00
7376;BME280;3728;42.266;24.944;2022-07-10T02:39:17;99126.72;;;17.97;100.00
7376;BME280;3728;42.266;24.944;2022-07-10T02:41:45;99129.44;;;18.30;100.00
7376;BME280;3728;42.266;24.944;2022-07-10T02:44:12;99137.72;;;18.25;100.00
7376;BME280;3728;42.266;24.944;2022-07-10T02:46:40;99133.31;;;18.36;100.00
7376;BME280;3728;42.266;24.944;2022-07-10T02:49:07;99140.13;;;18.08;100.00
7376;BME280;3728;42.266;24.944;2022-07-10T02:51:34;99142.31;;;18.02;100.00
7376;BME280;3728;42.266;24.944;2022-07-10T02:54:02;99141.16;;;18.00;100.00
7376;BME280;3728;42.266;24.944;2022-07-10T02:56:29;99139.75;;;18.09;100.00
7376;BME280;3728;42.266;24.944;2022-07-10T02:58:56;99148.44;;;18.06;100.00
7376;BME280;3728;42.266;24.944;2022-07-10T03:01:23;99136.88;;;18.18;100.00
7376;BME280;3728;42.266;24.944;2022-07-10T03:03:51;99135.63;;;18.12;100.00
7376;BME280;3728;42.266;24.944;2022-07-10T03:06:18;99141.41;;;18.17;100.00
7376;BME280;3728;42.266;24.944;2022-07-10T03:08:45;99141.97;;;18.04;100.00
7376;BME280;3728;42.266;24.944;2022-07-10T03:11:13;99148.19;;;18.15;100.00
7376;BME280;3728;42.266;24.944;2022-07-10T03:13:40;99147.66;;;18.32;100.00
7376;BME280;3728;42.266;24.944;2022-07-10T03:16:07;99141.00;;;18.15;100.00
7376;BME280;3728;42.266;24.944;2022-07-10T03:18:35;99149.47;;;17.98;100.00
7376;BME280;3728;42.266;24.944;2022-07-10T03:21:03;99135.66;;;18.41;100.00
7376;BME280;3728;42.266;24.944;2022-07-10T03:23:31;99142.81;;;18.11;100.00
7376;BME280;3728;42.266;24.944;2022-07-10T03:25:58;99140.06;;;18.04;100.00
7376;BME280;3728;42.266;24.944;2022-07-10T03:28:25;99138.69;;;18.14;100.00
7376;BME280;3728;42.266;24.944;2022-07-10T03:30:52;99132.50;;;18.03;100.00
7376;BME280;3728;42.266;24.944;2022-07-10T03:33:20;99127.19;;;18.03;100.00
7376;BME280;3728;42.266;24.944;2022-07-10T03:35:47;99124.69;;;18.13;100.00
7376;BME280;3728;42.266;24.944;2022-07-10T03:38:14;99118.66;;;18.16;100.00
7376;BME280;3728;42.266;24.944;2022-07-10T03:40:42;99115.69;;;18.21;100.00
7376;BME280;3728;42.266;24.944;2022-07-10T03:43:09;99110.41;;;18.21;100.00
7376;BME280;3728;42.266;24.944;2022-07-10T03:45:36;99112.72;;;18.23;100.00
7376;BME280;3728;42.266;24.944;2022-07-10T03:48:04;99119.03;;;18.15;100.00
7376;BME280;3728;42.266;24.944;2022-07-10T03:50:31;99112.03;;;18.29;100.00
7376;BME280;3728;42.266;24.944;2022-07-10T03:52:58;99099.19;;;18.35;100.00
7376;BME280;3728;42.266;24.944;2022-07-10T03:55:26;99106.81;;;18.36;100.00
7376;BME280;3728;42.266;24.944;2022-07-10T03:57:53;99108.97;;;18.27;100.00
7376;BME280;3728;42.266;24.944;2022-07-10T04:00:25;99113.03;;;18.48;100.00
7376;BME280;3728;42.266;24.944;2022-07-10T04:02:55;99122.16;;;18.54;100.00
7376;BME280;3728;42.266;24.944;2022-07-10T04:05:24;99121.63;;;18.71;100.00
7376;BME280;3728;42.266;24.944;2022-07-10T04:07:52;99123.31;;;18.86;100.00
7376;BME280;3728;42.266;24.944;2022-07-10T04:10:19;99123.66;;;18.84;100.00
7376;BME280;3728;42.266;24.944;2022-07-10T04:12:47;99120.41;;;18.98;100.00
7376;BME280;3728;42.266;24.944;2022-07-10T04:15:15;99120.88;;;19.10;100.00
7376;BME280;3728;42.266;24.944;2022-07-10T04:17:42;99118.13;;;19.00;100.00
7376;BME280;3728;42.266;24.944;2022-07-10T04:20:10;99128.88;;;19.14;100.00
7376;BME280;3728;42.266;24.944;2022-07-10T04:22:37;99125.59;;;19.28;100.00
7376;BME280;3728;42.266;24.944;2022-07-10T04:25:06;99130.19;;;19.34;100.00
7376;BME280;3728;42.266;24.944;2022-07-10T04:27:34;99138.41;;;19.62;100.00
7376;BME280;3728;42.266;24.944;2022-07-10T04:30:02;99139.59;;;19.68;100.00
7376;BME280;3728;42.266;24.944;2022-07-10T04:32:29;99130.22;;;19.85;99.83
7376;BME280;3728;42.266;24.944;2022-07-10T04:34:57;99134.28;;;20.23;96.94
7376;BME280;3728;42.266;24.944;2022-07-10T04:37:25;99135.69;;;20.10;97.32
7376;BME280;3728;42.266;24.944;2022-07-10T04:39:52;99136.50;;;20.21;96.18
7376;BME280;3728;42.266;24.944;2022-07-10T04:42:24;99138.53;;;20.41;95.66
7376;BME280;3728;42.266;24.944;2022-07-10T04:44:53;99141.19;;;20.41;95.81
7376;BME280;3728;42.266;24.944;2022-07-10T04:47:20;99140.00;;;20.35;95.62
7376;BME280;3728;42.266;24.944;2022-07-10T04:49:47;99145.38;;;20.46;94.91
7376;BME280;3728;42.266;24.944;2022-07-10T04:52:15;99146.50;;;20.45;94.46
7376;BME280;3728;42.266;24.944;2022-07-10T04:54:42;99153.28;;;20.25;95.99
7376;BME280;3728;42.266;24.944;2022-07-10T04:57:09;99147.56;;;20.26;96.65
7376;BME280;3728;42.266;24.944;2022-07-10T04:59:36;99153.22;;;20.18;96.79
7376;BME280;3728;42.266;24.944;2022-07-10T05:02:04;99154.88;;;20.43;95.55
7376;BME280;3728;42.266;24.944;2022-07-10T05:04:31;99156.72;;;20.32;95.41
7376;BME280;3728;42.266;24.944;2022-07-10T05:06:58;99159.66;;;20.17;96.12
7376;BME280;3728;42.266;24.944;2022-07-10T05:09:26;99159.75;;;20.31;95.83
7376;BME280;3728;42.266;24.944;2022-07-10T05:11:53;99155.22;;;20.42;95.27
7376;BME280;3728;42.266;24.944;2022-07-10T05:14:20;99165.00;;;20.20;95.67
7376;BME280;3728;42.266;24.944;2022-07-10T05:16:48;99170.41;;;20.34;96.10
7376;BME280;3728;42.266;24.944;2022-07-10T05:19:15;99171.63;;;20.55;95.25
7376;BME280;3728;42.266;24.944;2022-07-10T05:21:43;99176.69;;;20.77;93.36
7376;BME280;3728;42.266;24.944;2022-07-10T05:24:10;99177.81;;;20.80;93.84
7376;BME280;3728;42.266;24.944;2022-07-10T05:26:37;99167.59;;;20.99;92.14
7376;BME280;3728;42.266;24.944;2022-07-10T05:29:05;99181.00;;;21.42;90.31
7376;BME280;3728;42.266;24.944;2022-07-10T05:31:32;99176.84;;;21.41;88.96
7376;BME280;3728;42.266;24.944;2022-07-10T05:33:59;99176.44;;;21.81;88.28
7376;BME280;3728;42.266;24.944;2022-07-10T05:36:27;99163.13;;;21.77;86.00
7376;BME280;3728;42.266;24.944;2022-07-10T05:38:54;99165.41;;;21.79;86.13
7376;BME280;3728;42.266;24.944;2022-07-10T05:41:21;99171.13;;;21.99;86.69
7376;BME280;3728;42.266;24.944;2022-07-10T05:43:49;99173.75;;;22.16;84.16
7376;BME280;3728;42.266;24.944;2022-07-10T05:48:43;99164.88;;;22.47;81.19
7376;BME280;3728;42.266;24.944;2022-07-10T05:51:10;99165.66;;;22.48;81.69
7376;BME280;3728;42.266;24.944;2022-07-10T05:54:01;99167.66;;;22.19;83.45
7376;BME280;3728;42.266;24.944;2022-07-10T05:56:28;99168.84;;;21.97;83.69
7376;BME280;3728;42.266;24.944;2022-07-10T05:58:55;99169.59;;;22.08;82.43
7376;BME280;3728;42.266;24.944;2022-07-10T06:01:23;99170.38;;;21.91;83.93
7376;BME280;3728;42.266;24.944;2022-07-10T06:03:53;99172.66;;;21.57;84.91
7376;BME280;3728;42.266;24.944;2022-07-10T06:06:20;99174.56;;;21.50;85.49
7376;BME280;3728;42.266;24.944;2022-07-10T06:08:47;99184.06;;;21.47;85.83
7376;BME280;3728;42.266;24.944;2022-07-10T06:11:15;99179.09;;;21.39;87.28
7376;BME280;3728;42.266;24.944;2022-07-10T06:13:42;99178.72;;;21.51;86.98
7376;BME280;3728;42.266;24.944;2022-07-10T06:16:10;99177.97;;;21.54;86.47
7376;BME280;3728;42.266;24.944;2022-07-10T06:18:37;99179.50;;;21.69;86.51
7376;BME280;3728;42.266;24.944;2022-07-10T06:21:05;99176.44;;;21.81;85.52
7376;BME280;3728;42.266;24.944;2022-07-10T06:23:32;99184.84;;;21.94;83.53
7376;BME280;3728;42.266;24.944;2022-07-10T06:26:00;99184.06;;;22.00;83.09
7376;BME280;3728;42.266;24.944;2022-07-10T06:28:27;99188.28;;;21.87;84.85
7376;BME280;3728;42.266;24.944;2022-07-10T06:30:54;99184.44;;;22.13;83.58
7376;BME280;3728;42.266;24.944;2022-07-10T06:33:26;99188.63;;;22.17;83.75
7376;BME280;3728;42.266;24.944;2022-07-10T06:35:53;99183.94;;;22.49;80.31
7376;BME280;3728;42.266;24.944;2022-07-10T06:38:21;99193.97;;;22.21;81.16
7376;BME280;3728;42.266;24.944;2022-07-10T06:40:49;99183.22;;;22.38;81.44
7376;BME280;3728;42.266;24.944;2022-07-10T06:43:17;99184.31;;;22.66;79.45
7376;BME280;3728;42.266;24.944;2022-07-10T06:45:44;99183.44;;;22.86;77.86
7376;BME280;3728;42.266;24.944;2022-07-10T06:48:12;99185.75;;;22.81;78.82
7376;BME280;3728;42.266;24.944;2022-07-10T06:50:40;99189.84;;;22.99;80.05
7376;BME280;3728;42.266;24.944;2022-07-10T06:53:08;99180.91;;;22.51;79.18
7376;BME280;3728;42.266;24.944;2022-07-10T06:55:35;99181.72;;;22.37;80.13
7376;BME280;3728;42.266;24.944;2022-07-10T06:58:03;99179.72;;;22.59;79.90
7376;BME280;3728;42.266;24.944;2022-07-10T07:00:30;99183.81;;;22.85;78.82
7376;BME280;3728;42.266;24.944;2022-07-10T07:02:57;99184.22;;;22.83;78.56
7376;BME280;3728;42.266;24.944;2022-07-10T07:05:25;99181.38;;;23.11;77.98
7376;BME280;3728;42.266;24.944;2022-07-10T07:07:52;99184.56;;;23.54;76.70
7376;BME280;3728;42.266;24.944;2022-07-10T07:10:19;99181.13;;;24.35;75.37
7376;BME280;3728;42.266;24.944;2022-07-10T07:12:47;99187.31;;;24.29;73.79
7376;BME280;3728;42.266;24.944;2022-07-10T07:15:14;99180.75;;;24.67;69.68
7376;BME280;3728;42.266;24.944;2022-07-10T07:17:43;99185.16;;;24.84;69.07
7376;BME280;3728;42.266;24.944;2022-07-10T07:20:27;99179.56;;;25.55;68.34
7376;BME280;3728;42.266;24.944;2022-07-10T07:23:12;99178.63;;;24.85;67.92
7376;BME280;3728;42.266;24.944;2022-07-10T07:25:41;99178.66;;;25.12;67.68
7376;BME280;3728;42.266;24.944;2022-07-10T07:28:14;99178.09;;;25.74;65.18
7376;BME280;3728;42.266;24.944;2022-07-10T07:30:42;99175.41;;;25.97;64.71
7376;BME280;3728;42.266;24.944;2022-07-10T07:33:10;99174.25;;;25.52;69.63
7376;BME280;3728;42.266;24.944;2022-07-10T07:35:38;99181.22;;;25.92;63.58
7376;BME280;3728;42.266;24.944;2022-07-10T07:38:05;99176.84;;;26.02;64.00
7376;BME280;3728;42.266;24.944;2022-07-10T07:40:33;99167.44;;;26.13;65.11
7376;BME280;3728;42.266;24.944;2022-07-10T07:43:00;99178.59;;;26.12;62.30
7376;BME280;3728;42.266;24.944;2022-07-10T07:45:27;99172.69;;;26.20;58.71
7376;BME280;3728;42.266;24.944;2022-07-10T07:47:56;99164.72;;;26.92;56.67
7376;BME280;3728;42.266;24.944;2022-07-10T07:50:28;99174.19;;;27.64;55.52
7376;BME280;3728;42.266;24.944;2022-07-10T07:52:56;99173.84;;;27.62;53.99
7376;BME280;3728;42.266;24.944;2022-07-10T07:55:23;99172.50;;;28.57;53.10
7376;BME280;3728;42.266;24.944;2022-07-10T07:57:54;99172.75;;;28.62;52.47
7376;BME280;3728;42.266;24.944;2022-07-10T08:00:27;99181.63;;;29.26;48.81
7376;BME280;3728;42.266;24.944;2022-07-10T08:02:55;99177.53;;;29.34;47.63
7376;BME280;3728;42.266;24.944;2022-07-10T08:05:24;99179.72;;;29.86;48.70
7376;BME280;3728;42.266;24.944;2022-07-10T08:07:56;99170.47;;;30.17;48.70
7376;BME280;3728;42.266;24.944;2022-07-10T08:10:25;99172.53;;;30.78;48.00
7376;BME280;3728;42.266;24.944;2022-07-10T08:12:53;99182.97;;;31.38;46.04
7376;BME280;3728;42.266;24.944;2022-07-10T08:15:21;99187.38;;;31.44;44.58
7376;BME280;3728;42.266;24.944;2022-07-10T08:17:51;99172.47;;;29.83;47.23
7376;BME280;3728;42.266;24.944;2022-07-10T08:20:19;99169.63;;;29.14;47.04
7376;BME280;3728;42.266;24.944;2022-07-10T08:22:47;99175.59;;;29.22;48.04
7376;BME280;3728;42.266;24.944;2022-07-10T08:25:21;99169.91;;;29.20;47.90
7376;BME280;3728;42.266;24.944;2022-07-10T08:27:48;99175.69;;;28.68;50.80
7376;BME280;3728;42.266;24.944;2022-07-10T08:30:16;99180.41;;;28.64;50.97
7376;BME280;3728;42.266;24.944;2022-07-10T08:32:44;99173.81;;;28.23;51.50
7376;BME280;3728;42.266;24.944;2022-07-10T08:35:11;99182.56;;;27.83;51.65
7376;BME280;3728;42.266;24.944;2022-07-10T08:37:42;99180.56;;;28.03;50.68
7376;BME280;3728;42.266;24.944;2022-07-10T08:40:12;99177.13;;;27.38;53.10
7376;BME280;3728;42.266;24.944;2022-07-10T08:42:43;99173.16;;;27.26;54.06
7376;BME280;3728;42.266;24.944;2022-07-10T08:45:13;99176.88;;;27.64;52.32
7376;BME280;3728;42.266;24.944;2022-07-10T08:47:41;99176.34;;;27.05;53.77
7376;BME280;3728;42.266;24.944;2022-07-10T08:50:21;99178.03;;;26.60;56.47
7376;BME280;3728;42.266;24.944;2022-07-10T08:53:13;99177.97;;;26.24;58.85
7376;BME280;3728;42.266;24.944;2022-07-10T08:55:40;99179.84;;;26.46;56.73
7376;BME280;3728;42.266;24.944;2022-07-10T08:58:08;99185.81;;;26.15;56.28
7376;BME280;3728;42.266;24.944;2022-07-10T09:00:36;99188.59;;;26.51;55.90
7376;BME280;3728;42.266;24.944;2022-07-10T09:03:04;99178.72;;;25.81;57.00
7376;BME280;3728;42.266;24.944;2022-07-10T09:05:31;99181.94;;;25.50;59.50
7376;BME280;3728;42.266;24.944;2022-07-10T09:07:59;99180.41;;;25.49;60.39
7376;BME280;3728;42.266;24.944;2022-07-10T09:10:27;99185.03;;;25.48;58.80
7376;BME280;3728;42.266;24.944;2022-07-10T09:13:00;99184.34;;;25.41;60.93
7376;BME280;3728;42.266;24.944;2022-07-10T09:15:30;99178.19;;;24.90;60.89
7376;BME280;3728;42.266;24.944;2022-07-10T09:18:03;99182.25;;;25.29;61.25
7376;BME280;3728;42.266;24.944;2022-07-10T09:20:38;99188.28;;;25.33;59.43
7376;BME280;3728;42.266;24.944;2022-07-10T09:25:47;99199.94;;;25.23;61.16
7376;BME280;3728;42.266;24.944;2022-07-10T09:28:22;99193.28;;;25.07;62.02
7376;BME280;3728;42.266;24.944;2022-07-10T09:30:52;99196.81;;;25.01;62.46
7376;BME280;3728;42.266;24.944;2022-07-10T09:33:25;99196.44;;;25.26;59.85
7376;BME280;3728;42.266;24.944;2022-07-10T09:41:18;99193.38;;;24.67;62.72
7376;BME280;3728;42.266;24.944;2022-07-10T09:44:00;99190.63;;;24.74;63.12
7376;BME280;3728;42.266;24.944;2022-07-10T09:46:35;99199.19;;;24.95;59.34
7376;BME280;3728;42.266;24.944;2022-07-10T09:49:10;99197.47;;;24.78;59.28
7376;BME280;3728;42.266;24.944;2022-07-10T09:51:40;99195.78;;;24.91;59.10
7376;BME280;3728;42.266;24.944;2022-07-10T09:54:15;99188.81;;;24.97;58.94
7376;BME280;3728;42.266;24.944;2022-07-10T09:56:47;99189.50;;;25.01;59.27
7376;BME280;3728;42.266;24.944;2022-07-10T09:59:16;99186.78;;;24.75;59.02
7376;BME280;3728;42.266;24.944;2022-07-10T10:01:51;99189.94;;;24.66;59.95
7376;BME280;3728;42.266;24.944;2022-07-10T10:04:21;99184.22;;;24.64;58.95
7376;BME280;3728;42.266;24.944;2022-07-10T10:06:55;99191.16;;;24.62;59.85
7376;BME280;3728;42.266;24.944;2022-07-10T10:09:28;99192.84;;;24.82;62.00
7376;BME280;3728;42.266;24.944;2022-07-10T10:12:02;99195.25;;;25.03;61.00
7376;BME280;3728;42.266;24.944;2022-07-10T10:14:33;99195.28;;;25.27;61.67
7376;BME280;3728;42.266;24.944;2022-07-10T10:17:01;99199.56;;;25.74;60.12
7376;BME280;3728;42.266;24.944;2022-07-10T10:19:31;99184.97;;;25.52;57.03
7376;BME280;3728;42.266;24.944;2022-07-10T10:22:19;99183.44;;;26.20;58.49
7376;BME280;3728;42.266;24.944;2022-07-10T10:24:48;99190.94;;;25.86;55.99
7376;BME280;3728;42.266;24.944;2022-07-10T10:27:16;99180.03;;;26.36;54.66
7376;BME280;3728;42.266;24.944;2022-07-10T10:29:45;99180.25;;;26.84;54.80
7376;BME280;3728;42.266;24.944;2022-07-10T10:32:14;99182.19;;;27.00;54.54
7376;BME280;3728;42.266;24.944;2022-07-10T10:34:46;99174.34;;;26.14;54.64
7376;BME280;3728;42.266;24.944;2022-07-10T10:37:50;99175.50;;;26.53;56.43
7376;BME280;3728;42.266;24.944;2022-07-10T10:40:32;99174.03;;;26.68;55.30
7376;BME280;3728;42.266;24.944;2022-07-10T10:43:22;99168.91;;;26.37;56.35
7376;BME280;3728;42.266;24.944;2022-07-10T10:45:51;99176.72;;;26.68;55.72
7376;BME280;3728;42.266;24.944;2022-07-10T10:48:19;99175.91;;;26.71;55.90
7376;BME280;3728;42.266;24.944;2022-07-10T10:51:05;99165.66;;;26.66;55.54
7376;BME280;3728;42.266;24.944;2022-07-10T10:53:32;99167.44;;;27.08;54.40
7376;BME280;3728;42.266;24.944;2022-07-10T10:58:35;99177.94;;;27.83;50.85
7376;BME280;3728;42.266;24.944;2022-07-10T11:01:25;99167.41;;;28.05;51.95
7376;BME280;3728;42.266;24.944;2022-07-10T11:06:39;99167.06;;;27.87;51.28
7376;BME280;3728;42.266;24.944;2022-07-10T11:12:08;99166.72;;;27.40;50.82
7376;BME280;3728;42.266;24.944;2022-07-10T11:14:44;99164.81;;;27.85;50.16
7376;BME280;3728;42.266;24.944;2022-07-10T11:17:14;99163.25;;;28.29;48.37
7376;BME280;3728;42.266;24.944;2022-07-10T11:19:42;99156.97;;;28.48;50.78
7376;BME280;3728;42.266;24.944;2022-07-10T11:28:05;99140.53;;;31.26;44.49
7376;BME280;3728;42.266;24.944;2022-07-10T11:30:50;99150.25;;;32.08;39.13
7376;BME280;3728;42.266;24.944;2022-07-10T11:33:19;99154.19;;;34.33;38.56
7376;BME280;3728;42.266;24.944;2022-07-10T11:35:51;99145.66;;;34.55;36.58
7376;BME280;3728;42.266;24.944;2022-07-10T11:38:20;99146.44;;;34.02;37.38
7376;BME280;3728;42.266;24.944;2022-07-10T11:40:48;99144.16;;;34.24;34.81
7376;BME280;3728;42.266;24.944;2022-07-10T11:43:15;99135.78;;;33.99;39.06
7376;BME280;3728;42.266;24.944;2022-07-10T11:45:50;99142.72;;;35.42;36.03
7376;BME280;3728;42.266;24.944;2022-07-10T11:48:20;99141.28;;;36.13;33.80
7376;BME280;3728;42.266;24.944;2022-07-10T11:50:48;99142.94;;;36.36;31.51
7376;BME280;3728;42.266;24.944;2022-07-10T11:53:25;99137.47;;;34.25;36.94
7376;BME280;3728;42.266;24.944;2022-07-10T11:55:53;99139.47;;;35.03;36.24
7376;BME280;3728;42.266;24.944;2022-07-10T11:58:20;99132.91;;;36.22;34.69
7376;BME280;3728;42.266;24.944;2022-07-10T12:01:02;99142.00;;;37.13;30.43
7376;BME280;3728;42.266;24.944;2022-07-10T12:03:33;99131.56;;;39.09;30.48
7376;BME280;3728;42.266;24.944;2022-07-10T12:06:05;99127.53;;;40.49;27.08
7376;BME280;3728;42.266;24.944;2022-07-10T12:08:53;99123.00;;;41.24;25.54
7376;BME280;3728;42.266;24.944;2022-07-10T12:11:21;99122.28;;;41.42;25.65
7376;BME280;3728;42.266;24.944;2022-07-10T12:13:50;99118.56;;;42.08;25.80
7376;BME280;3728;42.266;24.944;2022-07-10T12:16:18;99116.41;;;43.51;24.12
7376;BME280;3728;42.266;24.944;2022-07-10T12:18:47;99116.88;;;43.63;22.27
7376;BME280;3728;42.266;24.944;2022-07-10T12:21:15;99115.38;;;44.86;21.49
7376;BME280;3728;42.266;24.944;2022-07-10T12:23:44;99110.81;;;45.31;20.66
7376;BME280;3728;42.266;24.944;2022-07-10T12:26:13;99104.44;;;43.82;22.16
7376;BME280;3728;42.266;24.944;2022-07-10T12:28:48;99097.78;;;41.20;23.23
7376;BME280;3728;42.266;24.944;2022-07-10T12:31:23;99109.97;;;41.06;24.63
7376;BME280;3728;42.266;24.944;2022-07-10T12:33:56;99091.75;;;40.30;25.17
7376;BME280;3728;42.266;24.944;2022-07-10T12:39:19;99089.66;;;41.51;25.70
7376;BME280;3728;42.266;24.944;2022-07-10T12:42:02;99088.25;;;43.32;23.65
7376;BME280;3728;42.266;24.944;2022-07-10T12:47:13;99082.97;;;43.88;20.68
7376;BME280;3728;42.266;24.944;2022-07-10T12:52:21;99061.22;;;43.30;22.85
7376;BME280;3728;42.266;24.944;2022-07-10T12:55:18;99068.25;;;43.05;20.58
7376;BME280;3728;42.266;24.944;2022-07-10T12:57:56;99059.50;;;44.23;20.66
7376;BME280;3728;42.266;24.944;2022-07-10T13:00:28;99058.06;;;45.29;20.19
7376;BME280;3728;42.266;24.944;2022-07-10T13:03:02;99066.28;;;46.03;18.26
7376;BME280;3728;42.266;24.944;2022-07-10T13:05:36;99060.56;;;46.01;19.23
7376;BME280;3728;42.266;24.944;2022-07-10T13:08:19;99057.13;;;45.34;20.77
7376;BME280;3728;42.266;24.944;2022-07-10T13:10:51;99055.38;;;46.98;19.13
7376;BME280;3728;42.266;24.944;2022-07-10T13:13:19;99053.34;;;46.05;19.58
7376;BME280;3728;42.266;24.944;2022-07-10T13:15:47;99043.56;;;44.37;21.39
7376;BME280;3728;42.266;24.944;2022-07-10T13:18:23;99047.44;;;45.71;19.86
7376;BME280;3728;42.266;24.944;2022-07-10T13:20:54;99043.09;;;43.97;21.22
7376;BME280;3728;42.266;24.944;2022-07-10T13:23:27;99041.84;;;45.33;19.64
7376;BME280;3728;42.266;24.944;2022-07-10T13:25:59;99037.63;;;44.89;20.60
7376;BME280;3728;42.266;24.944;2022-07-10T13:28:28;99032.25;;;44.48;20.60
7376;BME280;3728;42.266;24.944;2022-07-10T13:30:56;99027.13;;;42.94;21.47
7376;BME280;3728;42.266;24.944;2022-07-10T13:33:24;99025.19;;;41.34;22.60
7376;BME280;3728;42.266;24.944;2022-07-10T13:35:52;99019.97;;;42.52;22.85
7376;BME280;3728;42.266;24.944;2022-07-10T13:38:23;99020.06;;;43.53;22.58
7376;BME280;3728;42.266;24.944;2022-07-10T13:40:52;99020.66;;;44.49;21.67
7376;BME280;3728;42.266;24.944;2022-07-10T13:43:20;99033.97;;;46.05;19.31
7376;BME280;3728;42.266;24.944;2022-07-10T13:45:53;99029.97;;;47.49;18.40
7376;BME280;3728;42.266;24.944;2022-07-10T13:48:23;99021.66;;;47.66;17.10
7376;BME280;3728;42.266;24.944;2022-07-10T13:50:56;99012.25;;;47.04;18.18
7376;BME280;3728;42.266;24.944;2022-07-10T13:53:24;99010.78;;;47.03;18.09